createdAt,value
2023-04-05T00:00:37.149Z,101845.06
2023-04-05T00:05:39.079Z,101839.41
2023-04-05T00:10:41.142Z,101838.31
2023-04-05T00:15:44.318Z,101840.56
2023-04-05T00:20:45.998Z,101835.41
2023-04-05T00:25:47.859Z,101839.03
2023-04-05T00:30:51.997Z,101844.69
2023-04-05T00:35:53.971Z,101835.13
2023-04-05T00:40:55.843Z,101832.00
2023-04-05T00:45:58.953Z,101837.00
2023-04-05T00:51:00.791Z,101821.97
2023-04-05T00:56:02.532Z,101834.94
2023-04-05T01:01:14.023Z,101831.69
2023-04-05T01:06:23.361Z,101826.91
2023-04-05T01:11:26.213Z,101827.78
2023-04-05T01:16:29.222Z,101833.81
2023-04-05T01:22:13.866Z,101824.56
2023-04-05T01:27:17.150Z,101831.00
2023-04-05T01:32:25.186Z,101833.06
2023-04-05T01:37:27.809Z,101827.97
2023-04-05T01:42:29.665Z,101821.25
2023-04-05T01:47:32.787Z,101819.31
2023-04-05T01:52:34.549Z,101813.84
2023-04-05T01:57:36.274Z,101813.81
2023-04-05T02:02:39.476Z,101811.09
2023-04-05T02:07:41.190Z,101812.84
2023-04-05T02:12:45.210Z,101807.72
2023-04-05T02:17:49.102Z,101806.97
2023-04-05T02:22:51.746Z,101806.47
2023-04-05T02:27:53.464Z,101811.66
2023-04-05T02:32:58.006Z,101809.13
2023-04-05T02:37:59.849Z,101802.63
2023-04-05T02:43:01.970Z,101803.03
2023-04-05T02:48:05.482Z,101798.88
2023-04-05T02:53:07.403Z,101795.22
2023-04-05T02:58:09.313Z,101786.50
2023-04-05T03:03:17.916Z,101773.41
2023-04-05T03:08:19.936Z,101774.28
2023-04-05T03:13:32.677Z,101772.41
2023-04-05T03:18:36.184Z,101764.28
2023-04-05T03:23:43.141Z,101770.53
2023-04-05T03:28:46.493Z,101763.72
2023-04-05T03:33:50.427Z,101756.59
2023-04-05T03:38:52.711Z,101759.78
2023-04-05T03:43:56.581Z,101754.81
2023-04-05T03:49:00.443Z,101757.97
2023-04-05T03:54:02.168Z,101762.44
2023-04-05T03:59:07.498Z,101757.47
2023-04-05T04:04:11.562Z,101763.78
2023-04-05T04:09:14.332Z,101758.34
2023-04-05T04:14:16.140Z,101766.84
2023-04-05T04:19:33.178Z,101781.94
2023-04-05T04:24:40.673Z,101774.63
2023-04-05T04:30:08.062Z,101780.97
2023-04-05T04:35:27.869Z,101774.09
2023-04-05T04:40:39.016Z,101781.69
2023-04-05T04:45:56.967Z,101779.78
2023-04-05T04:51:23.140Z,101783.94
2023-04-05T04:56:24.840Z,101781.69
2023-04-05T05:01:28.508Z,101782.09
2023-04-05T05:06:31.652Z,101773.63
2023-04-05T05:11:33.371Z,101779.25
2023-04-05T05:16:35.850Z,101773.66
2023-04-05T05:21:38.941Z,101772.28
2023-04-05T05:26:40.689Z,101775.28
2023-04-05T05:31:42.385Z,101777.53
2023-04-05T05:36:45.505Z,101768.25
2023-04-05T05:41:47.660Z,101773.16
2023-04-05T05:46:49.488Z,101770.81
2023-04-05T05:51:52.891Z,101778.16
2023-04-05T05:56:54.618Z,101770.16
2023-04-05T06:01:56.497Z,101765.31
2023-04-05T06:06:59.597Z,101764.34
2023-04-05T06:12:01.317Z,101773.16
2023-04-05T06:17:03.010Z,101769.84
2023-04-05T06:22:06.042Z,101770.44
2023-04-05T06:27:07.857Z,101769.06
2023-04-05T06:32:09.588Z,101765.72
2023-04-05T06:37:12.650Z,101761.44
2023-04-05T06:42:14.384Z,101773.31
2023-04-05T06:47:21.373Z,101777.44
2023-04-05T06:52:24.569Z,101780.81
2023-04-05T06:57:27.003Z,101776.94
2023-04-05T07:02:28.711Z,101765.47
2023-04-05T07:07:31.857Z,101762.31
2023-04-05T07:12:33.536Z,101755.00
2023-04-05T07:17:35.252Z,101749.63
2023-04-05T07:22:38.283Z,101734.03
2023-04-05T07:27:40.032Z,101730.25
2023-04-05T07:32:41.707Z,101728.47
2023-04-05T07:37:44.741Z,101725.09
2023-04-05T07:42:46.419Z,101731.28
2023-04-05T07:47:48.119Z,101729.47
2023-04-05T07:52:51.291Z,101727.81
2023-04-05T07:57:53.559Z,101729.00
2023-04-05T08:02:56.253Z,101721.88
2023-04-05T08:08:00.439Z,101729.16
2023-04-05T08:13:02.137Z,101737.34
2023-04-05T08:18:04.051Z,101737.28
2023-04-05T08:23:07.770Z,101729.13
2023-04-05T08:28:09.592Z,101724.72
2023-04-05T08:33:11.504Z,101723.91
2023-04-05T08:38:14.554Z,101715.88
2023-04-05T08:43:20.590Z,101709.19
2023-04-05T08:48:22.323Z,101719.47
2023-04-05T08:53:25.359Z,101710.09
2023-04-05T08:58:27.243Z,101701.56
2023-04-05T09:03:31.376Z,101701.75
2023-04-05T09:08:34.510Z,101697.28
2023-04-05T09:13:36.241Z,101697.22
2023-04-05T09:18:37.982Z,101697.13
2023-04-05T09:23:41.892Z,101695.94
2023-04-05T09:28:43.850Z,101682.16
2023-04-05T09:33:45.699Z,101688.50
2023-04-05T09:38:48.735Z,101697.72
2023-04-05T09:43:50.596Z,101681.47
2023-04-05T09:48:52.297Z,101678.19
2023-04-05T09:53:59.723Z,101669.69
2023-04-05T09:59:02.286Z,101680.53
2023-04-05T10:04:04.109Z,101679.66
2023-04-05T10:09:08.224Z,101663.44
2023-04-05T10:14:09.943Z,101671.13
2023-04-05T10:19:16.400Z,101660.22
2023-04-05T10:24:29.336Z,101658.03
2023-04-05T10:29:35.999Z,101658.66
2023-04-05T10:34:42.322Z,101657.97
2023-04-05T10:39:45.953Z,101656.22
2023-04-05T10:44:51.503Z,101640.69
2023-04-05T10:49:54.046Z,101632.94
2023-04-05T10:54:58.988Z,101636.66
2023-04-05T11:00:00.892Z,101628.31
2023-04-05T11:05:04.764Z,101628.75
2023-04-05T11:10:08.743Z,101638.53
2023-04-05T11:15:28.295Z,101628.75
2023-04-05T11:20:39.961Z,101633.25
2023-04-05T11:25:47.454Z,101629.84
2023-04-05T11:30:51.509Z,101616.72
2023-04-05T11:36:00.597Z,101619.78
2023-04-05T11:41:07.713Z,101607.59
2023-04-05T11:46:09.710Z,101599.72
2023-04-05T11:51:11.888Z,101594.50
2023-04-05T11:56:16.048Z,101600.22
2023-04-05T12:01:18.859Z,101593.66
2023-04-05T12:06:22.107Z,101582.06
2023-04-05T12:11:25.723Z,101574.38
2023-04-05T12:16:29.285Z,101574.25
2023-04-05T12:21:31.114Z,101566.88
2023-04-05T12:26:35.941Z,101565.38
2023-04-05T12:31:38.810Z,101558.84
2023-04-05T12:36:43.933Z,101555.13
2023-04-05T12:41:56.329Z,101550.81
2023-04-05T12:47:00.595Z,101546.28
2023-04-05T12:52:02.950Z,101539.91
2023-04-05T12:57:08.916Z,101542.66
2023-04-05T13:02:10.787Z,101536.22
2023-04-05T13:07:12.499Z,101528.34
2023-04-05T13:12:15.513Z,101521.50
2023-04-05T13:17:17.205Z,101521.13
2023-04-05T13:22:18.929Z,101511.72
2023-04-05T13:27:22.572Z,101500.41
2023-04-05T13:32:24.383Z,101491.81
2023-04-05T13:37:26.450Z,101486.59
2023-04-05T13:42:29.528Z,101480.50
2023-04-05T13:47:31.255Z,101473.47
2023-04-05T13:52:33.012Z,101476.09
2023-04-05T13:57:36.059Z,101465.59
2023-04-05T14:02:38.896Z,101462.97
2023-04-05T14:07:40.736Z,101463.84
2023-04-05T14:12:43.763Z,101453.22
2023-04-05T14:17:45.785Z,101448.88
2023-04-05T14:22:47.454Z,101454.03
2023-04-05T14:27:50.549Z,101441.63
2023-04-05T14:32:52.299Z,101439.91
2023-04-05T14:37:53.997Z,101436.44
2023-04-05T14:42:56.990Z,101432.94
2023-04-05T14:47:58.730Z,101439.66
2023-04-05T14:53:01.569Z,101430.09
2023-04-05T14:58:04.607Z,101429.19
2023-04-05T15:03:06.852Z,101437.75
2023-04-05T15:08:08.813Z,101435.09
2023-04-05T15:13:12.088Z,101434.06
2023-04-05T15:18:13.923Z,101434.78
2023-04-05T15:23:15.860Z,101439.09
2023-04-05T15:28:18.970Z,101433.72
2023-04-05T15:33:20.910Z,101428.38
2023-04-05T15:38:22.601Z,101430.09
2023-04-05T15:43:25.757Z,101418.56
2023-04-05T15:48:27.503Z,101422.78
2023-04-05T15:53:29.229Z,101421.81
2023-04-05T15:58:32.253Z,101415.59
2023-04-05T16:03:34.029Z,101413.75
2023-04-05T16:08:35.727Z,101416.16
2023-04-05T16:13:38.731Z,101411.03
2023-04-05T16:18:40.476Z,101403.97
2023-04-05T16:23:42.305Z,101406.41
2023-04-05T16:28:45.417Z,101408.16
2023-04-05T16:33:47.097Z,101406.38
2023-04-05T16:38:48.852Z,101403.84
2023-04-05T16:43:52.600Z,101395.78
2023-04-05T16:48:54.256Z,101396.56
2023-04-05T16:53:55.965Z,101388.75
2023-04-05T16:58:59.090Z,101388.72
2023-04-05T17:04:00.831Z,101385.94
2023-04-05T17:09:03.505Z,101379.75
2023-04-05T17:14:07.648Z,101384.88
2023-04-05T17:19:09.390Z,101385.38
2023-04-05T17:24:11.090Z,101379.25
2023-04-05T17:29:14.196Z,101379.19
2023-04-05T17:34:16.719Z,101386.25
2023-04-05T17:39:18.387Z,101383.72
2023-04-05T17:44:21.588Z,101374.88
2023-04-05T17:49:23.280Z,101378.22
2023-04-05T17:54:24.970Z,101381.53
2023-04-05T17:59:28.070Z,101386.59
2023-04-05T18:04:29.822Z,101390.69
2023-04-05T18:09:32.188Z,101389.47
2023-04-05T18:14:36.826Z,101388.25
2023-04-05T18:19:39.772Z,101400.91
2023-04-05T18:24:42.281Z,101395.38
2023-04-05T18:29:46.614Z,101394.91
2023-04-05T18:37:40.842Z,101406.66
2023-04-05T18:43:37.284Z,101408.25
2023-04-05T18:48:39.339Z,101415.88
2023-04-05T18:53:41.129Z,101416.72
2023-04-05T18:58:44.272Z,101422.22
2023-04-05T19:03:46.152Z,101424.47
2023-04-05T19:08:48.126Z,101428.34
2023-04-05T19:13:52.361Z,101425.00
2023-04-05T19:18:54.150Z,101433.53
2023-04-05T19:23:56.039Z,101430.72
2023-04-05T19:28:59.114Z,101431.44
2023-04-05T19:34:01.288Z,101423.38
2023-04-05T19:39:03.925Z,101429.69
2023-04-05T19:44:10.108Z,101425.72
2023-04-05T19:49:18.366Z,101422.84
2023-04-05T19:54:20.207Z,101425.69
2023-04-05T19:59:28.834Z,101422.84
2023-04-05T20:04:34.291Z,101419.06
2023-04-05T20:09:37.544Z,101415.50
2023-04-05T20:14:41.583Z,101408.94
2023-04-05T20:19:56.749Z,101404.13
2023-04-05T20:24:58.412Z,101402.41
2023-04-05T20:30:01.571Z,101412.94
2023-04-05T20:35:05.279Z,101412.19
2023-04-05T20:40:08.052Z,101410.06
2023-04-05T20:45:11.734Z,101408.09
2023-04-05T20:50:13.755Z,101411.53
2023-04-05T20:55:15.717Z,101412.59
2023-04-05T21:00:19.588Z,101408.50
2023-04-05T21:05:21.397Z,101401.41
2023-04-05T21:10:23.264Z,101401.69
2023-04-05T21:15:31.088Z,101398.97
2023-04-05T21:20:34.400Z,101403.03
2023-04-05T21:25:36.146Z,101396.00
2023-04-05T21:30:39.240Z,101390.38
2023-04-05T21:35:40.996Z,101402.53
2023-04-05T21:40:44.446Z,101395.38
2023-04-05T21:45:47.641Z,101395.00
2023-04-05T21:50:49.370Z,101399.78
2023-04-05T21:55:51.131Z,101404.44
2023-04-05T22:00:54.252Z,101403.59
2023-04-05T22:05:56.193Z,101393.41
2023-04-05T22:10:57.931Z,101397.44
2023-04-05T22:16:01.242Z,101400.72
2023-04-05T22:21:03.030Z,101395.59
2023-04-05T22:26:04.782Z,101391.03
2023-04-05T22:31:07.897Z,101387.38
2023-04-05T22:36:09.933Z,101392.88
2023-04-05T22:41:11.728Z,101387.44
2023-04-05T22:46:14.854Z,101381.25
2023-04-05T22:51:16.698Z,101376.16
2023-04-05T22:56:21.284Z,101383.41
2023-04-05T23:01:24.361Z,101372.75
2023-04-05T23:06:26.241Z,101368.75
2023-04-05T23:11:27.950Z,101357.03
2023-04-05T23:16:30.988Z,101355.31
2023-04-05T23:21:32.777Z,101358.19
2023-04-05T23:26:34.530Z,101353.19
2023-04-05T23:31:37.618Z,101353.91
2023-04-05T23:36:39.345Z,101352.91
2023-04-05T23:41:41.128Z,101347.75
2023-04-05T23:46:44.239Z,101354.13
2023-04-05T23:51:46.092Z,101348.16
2023-04-05T23:56:48.218Z,101346.75
